createdAt,value
2022-09-22T00:01:13.199Z,0.10
2022-09-22T00:03:44.643Z,0.10
2022-09-22T00:06:22.609Z,0.10
2022-09-22T00:08:55.162Z,0.10
2022-09-22T00:11:28.425Z,0.65
2022-09-22T00:13:59.877Z,0.00
2022-09-22T00:16:30.351Z,0.10
2022-09-22T00:18:57.323Z,0.10
2022-09-22T00:21:27.695Z,0.00
2022-09-22T00:23:55.138Z,0.08
2022-09-22T00:26:23.683Z,0.10
2022-09-22T00:28:52.804Z,0.20
2022-09-22T00:31:25.542Z,0.10
2022-09-22T00:33:53.560Z,0.00
2022-09-22T00:36:23.522Z,0.20
2022-09-22T00:38:54.034Z,0.10
2022-09-22T00:41:30.294Z,0.10
2022-09-22T00:44:15.882Z,0.30
2022-09-22T00:46:44.085Z,0.08
2022-09-22T00:49:18.171Z,0.10
2022-09-22T00:51:45.209Z,0.08
2022-09-22T00:54:15.265Z,0.10
2022-09-22T00:56:53.658Z,0.10
2022-09-22T00:59:22.299Z,0.10
2022-09-22T01:01:49.960Z,0.10
2022-09-22T01:04:17.227Z,0.10
2022-09-22T01:06:44.147Z,0.13
2022-09-22T01:09:11.234Z,0.10
2022-09-22T01:11:38.923Z,0.22
2022-09-22T01:14:37.980Z,0.10
2022-09-22T01:17:10.371Z,0.10
2022-09-22T01:20:02.530Z,0.00
2022-09-22T01:23:12.539Z,0.10
2022-09-22T01:25:58.336Z,0.20
2022-09-22T01:28:43.054Z,0.10
2022-09-22T01:31:27.862Z,0.10
2022-09-22T01:34:38.356Z,0.10
2022-09-22T01:37:25.671Z,0.10
2022-09-22T01:39:58.153Z,0.00
2022-09-22T01:42:32.195Z,0.50
2022-09-22T01:45:03.892Z,0.00
2022-09-22T01:47:42.962Z,0.10
2022-09-22T01:50:16.563Z,0.10
2022-09-22T01:52:43.547Z,0.10
2022-09-22T01:55:32.676Z,0.00
2022-09-22T01:58:18.511Z,0.10
2022-09-22T02:00:53.970Z,0.10
2022-09-22T02:03:25.614Z,0.08
2022-09-22T02:05:56.671Z,0.10
2022-09-22T02:08:49.163Z,0.10
2022-09-22T02:11:16.282Z,0.08
2022-09-22T02:13:44.494Z,0.22
2022-09-22T02:16:13.238Z,0.10
2022-09-22T02:18:47.864Z,0.08
2022-09-22T02:21:15.699Z,0.08
2022-09-22T02:23:42.874Z,0.08
2022-09-22T02:26:10.023Z,0.10
2022-09-22T02:28:39.101Z,0.10
2022-09-22T02:31:22.737Z,0.00
2022-09-22T02:33:53.974Z,0.10
2022-09-22T02:36:30.715Z,0.00
2022-09-22T02:39:39.033Z,0.10
2022-09-22T02:42:35.020Z,0.10
2022-09-22T02:45:22.384Z,0.20
2022-09-22T02:48:03.376Z,0.00
2022-09-22T02:50:32.410Z,0.10
2022-09-22T02:53:03.583Z,0.08
2022-09-22T02:55:30.690Z,0.10
2022-09-22T02:57:57.399Z,0.10
2022-09-22T03:00:24.063Z,0.10
2022-09-22T03:02:50.746Z,0.10
2022-09-22T03:05:17.544Z,0.20
2022-09-22T03:07:44.171Z,0.20
2022-09-22T03:10:11.406Z,0.10
2022-09-22T03:13:09.190Z,0.10
2022-09-22T03:15:30.639Z,0.10
2022-09-22T03:17:57.424Z,0.00
2022-09-22T03:20:24.159Z,0.10
2022-09-22T03:22:50.828Z,0.10
2022-09-22T03:25:17.789Z,0.10
2022-09-22T03:27:44.439Z,0.10
2022-09-22T03:30:12.074Z,0.10
2022-09-22T03:32:38.744Z,0.10
2022-09-22T03:35:06.355Z,0.10
2022-09-22T03:37:34.526Z,0.10
2022-09-22T03:40:01.821Z,0.00
2022-09-22T03:42:28.568Z,0.00
2022-09-22T03:44:55.330Z,0.10
2022-09-22T03:47:22.005Z,0.10
2022-09-22T03:49:49.020Z,0.10
2022-09-22T03:52:15.985Z,0.10
2022-09-22T03:54:42.749Z,0.10
2022-09-22T03:57:09.410Z,0.10
2022-09-22T03:59:36.214Z,0.10
2022-09-22T04:02:04.512Z,0.10
2022-09-22T04:04:32.625Z,0.10
2022-09-22T04:07:03.376Z,0.10
2022-09-22T04:09:33.007Z,0.10
2022-09-22T04:12:00.514Z,0.00
2022-09-22T04:14:27.311Z,0.10
2022-09-22T04:16:54.355Z,0.08
2022-09-22T04:19:21.211Z,0.10
2022-09-22T04:21:47.886Z,0.10
2022-09-22T04:24:14.655Z,0.00
2022-09-22T04:26:51.819Z,0.10
2022-09-22T04:29:28.084Z,0.03
2022-09-22T04:31:54.889Z,0.15
2022-09-22T04:34:21.619Z,0.52
2022-09-22T04:36:48.267Z,0.10
2022-09-22T04:39:14.992Z,0.10
2022-09-22T04:41:41.605Z,0.20
2022-09-22T04:44:08.457Z,0.10
2022-09-22T04:46:35.144Z,0.40
2022-09-22T04:49:02.054Z,0.10
2022-09-22T04:51:28.878Z,0.32
2022-09-22T04:53:55.607Z,0.10
2022-09-22T04:56:22.532Z,0.65
2022-09-22T04:58:49.338Z,0.00
2022-09-22T05:01:16.133Z,0.00
2022-09-22T05:03:42.875Z,0.10
2022-09-22T05:06:09.521Z,0.10
2022-09-22T05:08:36.259Z,0.10
2022-09-22T05:11:03.453Z,0.10
2022-09-22T05:13:30.361Z,0.00
2022-09-22T05:15:57.051Z,0.10
2022-09-22T05:18:23.830Z,0.00
2022-09-22T05:20:50.486Z,0.10
2022-09-22T05:23:17.220Z,0.05
2022-09-22T05:25:44.303Z,0.17
2022-09-22T05:28:12.455Z,0.63
2022-09-22T05:30:39.220Z,0.10
2022-09-22T05:33:06.124Z,0.10
2022-09-22T05:35:36.710Z,0.10
2022-09-22T05:38:03.982Z,0.85
2022-09-22T05:40:31.110Z,0.65
2022-09-22T05:42:58.138Z,0.20
2022-09-22T05:45:25.244Z,0.10
2022-09-22T05:47:53.004Z,0.28
2022-09-22T05:50:21.215Z,0.20
2022-09-22T05:52:47.969Z,0.32
2022-09-22T05:55:14.643Z,0.75
2022-09-22T05:57:41.523Z,0.22
2022-09-22T06:00:09.066Z,0.00
2022-09-22T06:02:39.289Z,0.10
2022-09-22T06:05:06.894Z,0.52
2022-09-22T06:07:33.689Z,0.00
2022-09-22T06:10:00.362Z,0.00
2022-09-22T06:12:26.987Z,0.30
2022-09-22T06:14:53.715Z,0.20
2022-09-22T06:17:20.413Z,0.38
2022-09-22T06:19:50.419Z,0.05
2022-09-22T06:22:17.996Z,0.15
2022-09-22T06:24:44.838Z,0.20
2022-09-22T06:27:11.587Z,0.10
2022-09-22T06:29:38.323Z,0.20
2022-09-22T06:32:08.204Z,0.25
2022-09-22T06:34:36.129Z,0.38
2022-09-22T06:37:08.345Z,0.20
2022-09-22T06:39:37.706Z,0.25
2022-09-22T06:42:05.662Z,0.10
2022-09-22T06:44:33.013Z,0.10
2022-09-22T06:47:05.329Z,0.10
2022-09-22T06:49:32.293Z,0.10
2022-09-22T06:51:58.972Z,0.20
2022-09-22T06:54:25.954Z,0.17
2022-09-22T06:56:52.610Z,0.10
2022-09-22T06:59:19.849Z,0.10
2022-09-22T07:01:46.800Z,0.40
2022-09-22T07:04:14.190Z,0.10
2022-09-22T07:06:41.178Z,0.43
2022-09-22T07:09:09.418Z,0.17
2022-09-22T07:11:40.030Z,0.20
2022-09-22T07:14:08.518Z,0.10
2022-09-22T07:16:36.278Z,0.10
2022-09-22T07:19:03.368Z,0.13
2022-09-22T07:21:35.018Z,0.10
2022-09-22T07:24:02.259Z,0.10
2022-09-22T07:26:34.271Z,0.10
2022-09-22T07:29:03.517Z,0.38
2022-09-22T07:31:32.114Z,0.10
2022-09-22T07:34:01.728Z,0.20
2022-09-22T07:36:30.819Z,1.02
2022-09-22T07:39:03.165Z,0.30
2022-09-22T07:41:31.353Z,0.28
2022-09-22T07:44:18.141Z,0.57
2022-09-22T07:46:45.487Z,0.20
2022-09-22T07:49:12.328Z,0.43
2022-09-22T07:51:39.085Z,0.57
2022-09-22T07:54:08.477Z,0.20
2022-09-22T07:56:40.226Z,0.75
2022-09-22T07:59:10.742Z,0.30
2022-09-22T08:01:48.881Z,1.15
2022-09-22T08:04:18.797Z,0.10
2022-09-22T08:06:47.052Z,0.30
2022-09-22T08:09:13.802Z,0.57
2022-09-22T08:11:48.832Z,0.25
2022-09-22T08:14:17.413Z,0.55
2022-09-22T08:16:45.856Z,0.40
2022-09-22T08:19:14.007Z,0.22
2022-09-22T08:21:48.423Z,0.30
2022-09-22T08:24:21.701Z,0.10
2022-09-22T08:26:53.065Z,0.20
2022-09-22T08:29:20.637Z,1.20
2022-09-22T08:31:48.118Z,0.17
2022-09-22T08:34:17.560Z,0.35
2022-09-22T08:36:47.350Z,0.13
2022-09-22T08:39:15.398Z,0.10
2022-09-22T08:41:55.358Z,0.45
2022-09-22T08:44:33.002Z,0.90
2022-09-22T08:47:00.913Z,0.35
2022-09-22T08:50:05.457Z,0.40
2022-09-22T08:52:38.955Z,0.15
2022-09-22T08:55:08.564Z,0.17
2022-09-22T08:57:44.397Z,0.20
2022-09-22T09:00:19.489Z,0.73
2022-09-22T09:02:59.317Z,0.25
2022-09-22T09:05:54.547Z,0.73
2022-09-22T09:08:40.340Z,0.10
2022-09-22T09:11:30.468Z,0.50
2022-09-22T09:14:15.908Z,0.13
2022-09-22T09:16:56.427Z,0.20
2022-09-22T09:19:34.026Z,0.25
2022-09-22T09:22:06.186Z,0.20
2022-09-22T09:27:28.825Z,0.15
2022-09-22T09:30:38.654Z,0.20
2022-09-22T09:33:14.450Z,0.27
2022-09-22T09:35:45.311Z,0.15
2022-09-22T09:38:17.351Z,0.10
2022-09-22T09:40:54.589Z,0.40
2022-09-22T09:43:23.422Z,0.20
2022-09-22T09:46:08.569Z,0.17
2022-09-22T09:48:48.516Z,0.20
2022-09-22T09:51:15.462Z,0.20
2022-09-22T09:53:44.516Z,0.10
2022-09-22T09:56:28.242Z,0.20
2022-09-22T09:59:21.948Z,0.20
2022-09-22T10:01:51.315Z,0.40
2022-09-22T10:04:38.386Z,0.10
2022-09-22T10:07:15.635Z,0.32
2022-09-22T10:09:43.466Z,0.30
2022-09-22T10:12:23.622Z,0.40
2022-09-22T10:14:52.305Z,0.43
2022-09-22T10:17:31.144Z,0.10
2022-09-22T10:20:24.370Z,0.25
2022-09-22T10:22:51.108Z,0.20
2022-09-22T10:25:26.231Z,0.22
2022-09-22T10:28:01.559Z,0.47
2022-09-22T10:30:33.001Z,0.30
2022-09-22T10:33:08.881Z,0.10
2022-09-22T10:35:36.278Z,0.20
2022-09-22T10:38:24.999Z,0.20
2022-09-22T10:41:08.759Z,0.20
2022-09-22T10:44:00.431Z,0.20
2022-09-22T10:47:16.847Z,0.10
2022-09-22T10:49:52.714Z,0.20
2022-09-22T10:52:51.249Z,0.10
2022-09-22T10:55:28.590Z,0.20
2022-09-22T10:58:04.623Z,0.20
2022-09-22T11:00:41.652Z,0.10
2022-09-22T11:03:26.994Z,0.20
2022-09-22T11:06:33.477Z,0.30
2022-09-22T11:09:32.231Z,0.17
2022-09-22T11:12:17.075Z,0.90
2022-09-22T11:15:07.716Z,0.30
2022-09-22T11:20:27.691Z,0.20
2022-09-22T11:23:13.295Z,0.47
2022-09-22T11:25:54.355Z,0.28
2022-09-22T11:28:43.840Z,0.20
2022-09-22T11:31:55.323Z,0.10
2022-09-22T11:34:27.735Z,0.10
2022-09-22T11:37:28.215Z,0.30
2022-09-22T11:42:40.298Z,0.43
2022-09-22T11:45:22.546Z,0.30
2022-09-22T11:48:10.806Z,0.10
2022-09-22T11:50:40.484Z,0.10
2022-09-22T11:53:36.442Z,0.10
2022-09-22T11:56:10.471Z,0.10
2022-09-22T11:58:40.997Z,0.10
2022-09-22T12:01:30.018Z,0.10
2022-09-22T12:04:05.723Z,0.30
2022-09-22T12:06:39.139Z,0.40
2022-09-22T12:09:12.704Z,0.40
2022-09-22T12:11:39.564Z,0.30
2022-09-22T12:14:06.853Z,0.10
2022-09-22T12:16:45.955Z,0.10
2022-09-22T12:19:21.854Z,0.10
2022-09-22T12:22:07.514Z,0.45
2022-09-22T12:24:34.888Z,0.43
2022-09-22T12:27:17.615Z,0.10
2022-09-22T12:29:45.110Z,0.20
2022-09-22T12:32:38.296Z,0.20
2022-09-22T12:35:06.167Z,0.10
2022-09-22T12:37:36.736Z,0.10
2022-09-22T12:40:18.865Z,1.02
2022-09-22T12:42:49.725Z,0.10
2022-09-22T12:45:23.805Z,0.28
2022-09-22T12:47:52.777Z,0.20
2022-09-22T12:50:41.804Z,0.77
2022-09-22T12:53:20.865Z,0.20
2022-09-22T12:55:50.510Z,0.35
2022-09-22T12:58:21.271Z,0.10
2022-09-22T13:01:26.581Z,0.25
2022-09-22T13:04:13.250Z,1.05
2022-09-22T13:06:39.941Z,1.38
2022-09-22T13:09:06.564Z,0.10
2022-09-22T13:12:11.617Z,0.10
2022-09-22T13:15:17.778Z,0.17
2022-09-22T13:17:47.829Z,0.40
2022-09-22T13:20:31.380Z,0.35
2022-09-22T13:23:14.140Z,0.22
2022-09-22T13:25:42.514Z,0.20
2022-09-22T13:28:09.102Z,0.25
2022-09-22T13:30:37.615Z,0.10
2022-09-22T13:33:04.316Z,0.65
2022-09-22T13:35:37.632Z,0.20
2022-09-22T13:38:04.882Z,0.10
2022-09-22T13:40:34.879Z,0.40
2022-09-22T13:43:06.614Z,0.30
2022-09-22T13:45:33.509Z,0.20
2022-09-22T13:48:09.122Z,0.40
2022-09-22T13:50:49.290Z,0.15
2022-09-22T13:53:18.727Z,0.32
2022-09-22T13:55:48.767Z,0.10
2022-09-22T13:58:32.940Z,0.38
2022-09-22T14:01:15.800Z,0.10
2022-09-22T14:03:43.404Z,0.20
2022-09-22T14:06:18.597Z,0.10
2022-09-22T14:08:46.686Z,0.10
2022-09-22T14:11:17.020Z,0.57
2022-09-22T14:16:29.281Z,0.30
2022-09-22T14:19:08.824Z,0.47
2022-09-22T14:22:03.007Z,0.10
2022-09-22T14:24:31.785Z,0.35
2022-09-22T14:27:03.678Z,0.17
2022-09-22T14:29:39.857Z,0.20
2022-09-22T14:32:13.201Z,0.20
2022-09-22T14:34:41.047Z,0.10
2022-09-22T14:37:16.831Z,0.10
2022-09-22T14:39:44.744Z,0.20
2022-09-22T14:42:29.304Z,0.20
2022-09-22T14:45:08.594Z,0.30
2022-09-22T14:47:40.745Z,0.10
2022-09-22T14:50:19.268Z,0.30
2022-09-22T14:52:53.460Z,0.20
2022-09-22T14:55:43.691Z,0.10
2022-09-22T14:58:21.480Z,0.20
2022-09-22T15:01:18.727Z,0.30
2022-09-22T15:04:03.028Z,0.15
2022-09-22T15:06:39.631Z,0.10
2022-09-22T15:09:07.619Z,0.28
2022-09-22T15:11:50.888Z,0.20
2022-09-22T15:14:42.321Z,0.10
2022-09-22T15:17:56.814Z,0.30
2022-09-22T15:20:32.695Z,0.20
2022-09-22T15:22:59.506Z,0.60
2022-09-22T15:25:26.126Z,1.10
2022-09-22T15:27:55.662Z,1.70
2022-09-22T15:30:22.759Z,2.08
2022-09-22T15:37:50.079Z,3.67
2022-09-22T15:40:21.276Z,4.18
2022-09-22T15:43:11.322Z,4.55
2022-09-22T15:45:37.358Z,5.15
2022-09-22T15:50:30.791Z,5.70
2022-09-22T15:53:00.873Z,5.85
2022-09-22T15:55:28.747Z,6.30
2022-09-22T15:57:57.591Z,5.30
2022-09-22T16:00:27.590Z,6.03
2022-09-22T16:02:54.734Z,5.30
2022-09-22T16:07:52.621Z,0.80
2022-09-22T16:10:23.485Z,0.35
2022-09-22T16:12:50.679Z,0.28
2022-09-22T16:15:17.741Z,0.43
2022-09-22T16:17:46.070Z,0.10
2022-09-22T16:20:15.784Z,0.38
2022-09-22T16:25:11.264Z,0.25
2022-09-22T16:27:38.452Z,0.20
2022-09-22T16:30:05.863Z,0.30
2022-09-22T16:32:35.614Z,0.10
2022-09-22T16:35:03.650Z,0.10
2022-09-22T16:37:30.290Z,0.10
2022-09-22T16:39:57.439Z,0.17
2022-09-22T16:42:24.165Z,0.17
2022-09-22T16:44:51.094Z,0.20
2022-09-22T16:47:21.176Z,0.40
2022-09-22T16:49:49.529Z,0.30
2022-09-22T16:52:16.420Z,0.13
2022-09-22T16:54:44.120Z,0.30
2022-09-22T16:57:10.813Z,0.55
2022-09-22T16:59:38.087Z,0.10
2022-09-22T17:02:04.858Z,0.35
2022-09-22T17:04:32.351Z,0.25
2022-09-22T17:06:59.249Z,0.60
2022-09-22T17:09:26.127Z,0.60
2022-09-22T17:11:53.642Z,0.22
2022-09-22T17:14:21.615Z,0.25
2022-09-22T17:16:52.089Z,0.22
2022-09-22T17:19:27.571Z,0.10
2022-09-22T17:21:55.637Z,0.22
2022-09-22T17:24:25.573Z,0.20
2022-09-22T17:26:57.592Z,0.10
2022-09-22T17:29:26.728Z,0.10
2022-09-22T17:31:57.288Z,0.10
2022-09-22T17:34:25.181Z,0.40
2022-09-22T17:36:55.301Z,0.15
2022-09-22T17:39:23.440Z,0.20
2022-09-22T17:41:50.485Z,0.20
2022-09-22T17:44:21.113Z,0.05
2022-09-22T17:49:52.301Z,0.32
2022-09-22T17:52:37.686Z,0.20
2022-09-22T17:55:11.820Z,0.45
2022-09-22T17:57:40.883Z,0.10
2022-09-22T18:00:10.911Z,0.10
2022-09-22T18:02:38.934Z,0.30
2022-09-22T18:05:11.960Z,0.10
2022-09-22T18:07:40.393Z,0.10
2022-09-22T18:10:09.586Z,0.20
2022-09-22T18:12:36.414Z,0.10
2022-09-22T18:15:04.132Z,0.13
2022-09-22T18:17:35.076Z,0.20
2022-09-22T18:20:02.063Z,0.10
2022-09-22T18:22:30.141Z,0.47
2022-09-22T18:24:57.030Z,0.35
2022-09-22T18:27:27.187Z,0.60
2022-09-22T18:29:58.392Z,0.40
2022-09-22T18:32:26.516Z,0.22
2022-09-22T18:34:54.304Z,0.20
2022-09-22T18:37:29.508Z,0.30
2022-09-22T18:39:57.168Z,0.15
2022-09-22T18:42:24.617Z,0.20
2022-09-22T18:44:52.179Z,0.10
2022-09-22T18:47:20.942Z,0.20
2022-09-22T18:49:51.815Z,0.28
2022-09-22T18:52:23.880Z,0.47
2022-09-22T18:54:53.866Z,0.20
2022-09-22T18:57:22.444Z,0.10
2022-09-22T18:59:51.009Z,0.10
2022-09-22T19:02:22.610Z,0.00
2022-09-22T19:04:51.269Z,0.10
2022-09-22T19:07:40.578Z,0.10
2022-09-22T19:10:09.602Z,0.22
2022-09-22T19:12:39.709Z,0.10
2022-09-22T19:15:15.217Z,0.10
2022-09-22T19:17:46.452Z,0.10
2022-09-22T19:20:19.578Z,0.10
2022-09-22T19:22:47.534Z,0.10
2022-09-22T19:25:14.958Z,0.10
2022-09-22T19:27:41.848Z,0.10
2022-09-22T19:30:10.219Z,0.15
2022-09-22T19:32:37.703Z,0.10
2022-09-22T19:35:06.123Z,0.08
2022-09-22T19:37:32.940Z,0.08
2022-09-22T19:39:59.611Z,0.10
2022-09-22T19:42:28.689Z,0.10
2022-09-22T19:44:55.846Z,0.00
2022-09-22T19:47:23.093Z,0.10
2022-09-22T19:49:50.028Z,0.10
2022-09-22T19:52:17.591Z,0.10
2022-09-22T19:54:44.470Z,0.10
2022-09-22T19:57:11.558Z,0.10
2022-09-22T19:59:38.253Z,0.08
2022-09-22T20:02:11.600Z,0.20
2022-09-22T20:04:38.718Z,0.10
2022-09-22T20:07:07.326Z,0.10
2022-09-22T20:09:35.106Z,0.10
2022-09-22T20:12:01.895Z,0.00
2022-09-22T20:14:31.373Z,0.20
2022-09-22T20:17:06.636Z,0.65
2022-09-22T20:19:35.737Z,0.13
2022-09-22T20:22:25.415Z,0.20
2022-09-22T20:24:55.292Z,0.10
2022-09-22T20:27:26.570Z,0.10
2022-09-22T20:29:56.994Z,0.10
2022-09-22T20:32:25.504Z,0.10
2022-09-22T20:34:53.723Z,0.10
2022-09-22T20:37:20.489Z,0.10
2022-09-22T20:39:47.335Z,0.10
2022-09-22T20:42:15.461Z,0.10
2022-09-22T20:44:45.224Z,0.10
2022-09-22T20:47:16.461Z,0.20
2022-09-22T20:49:45.849Z,0.10
2022-09-22T20:52:15.907Z,0.00
2022-09-22T20:54:43.301Z,0.20
2022-09-22T20:57:11.192Z,0.43
2022-09-22T20:59:39.015Z,0.10
2022-09-22T21:02:07.242Z,0.00
2022-09-22T21:04:35.020Z,0.13
2022-09-22T21:07:01.772Z,0.57
2022-09-22T21:09:47.454Z,0.10
2022-09-22T21:12:14.231Z,0.10
2022-09-22T21:14:46.081Z,0.95
2022-09-22T21:17:15.945Z,0.00
2022-09-22T21:19:43.333Z,0.30
2022-09-22T21:22:10.325Z,0.20
2022-09-22T21:24:37.260Z,0.10
2022-09-22T21:27:04.377Z,0.20
2022-09-22T21:29:31.133Z,0.20
2022-09-22T21:31:58.100Z,0.10
2022-09-22T21:34:25.108Z,0.10
2022-09-22T21:36:52.007Z,0.22
2022-09-22T21:39:18.821Z,0.10
2022-09-22T21:41:45.492Z,0.10
2022-09-22T21:44:12.363Z,0.10
2022-09-22T21:46:41.907Z,0.10
2022-09-22T21:49:09.708Z,0.10
2022-09-22T21:51:41.306Z,0.15
2022-09-22T21:54:12.927Z,0.17
2022-09-22T21:56:39.706Z,0.10
2022-09-22T21:59:06.442Z,0.00
2022-09-22T22:01:35.726Z,0.22
2022-09-22T22:04:07.872Z,0.10
2022-09-22T22:06:40.115Z,0.10
2022-09-22T22:09:18.453Z,0.08
2022-09-22T22:11:55.538Z,0.10
2022-09-22T22:14:24.782Z,0.17
2022-09-22T22:16:53.621Z,0.10
2022-09-22T22:19:22.258Z,0.45
2022-09-22T22:21:50.966Z,0.10
2022-09-22T22:24:25.578Z,0.10
2022-09-22T22:26:57.999Z,0.10
2022-09-22T22:29:26.157Z,0.10
2022-09-22T22:31:53.028Z,0.10
2022-09-22T22:34:22.080Z,0.10
2022-09-22T22:36:49.257Z,0.10
2022-09-22T22:39:16.453Z,0.10
2022-09-22T22:41:43.193Z,0.00
2022-09-22T22:44:10.251Z,0.00
2022-09-22T22:46:37.333Z,0.20
2022-09-22T22:49:07.639Z,0.10
2022-09-22T22:51:37.480Z,0.10
2022-09-22T22:54:05.006Z,0.10
2022-09-22T22:56:32.253Z,0.20
2022-09-22T22:58:59.192Z,0.00
2022-09-22T23:01:30.792Z,0.00
2022-09-22T23:04:05.982Z,0.10
2022-09-22T23:06:36.031Z,0.25
2022-09-22T23:09:04.820Z,0.10
2022-09-22T23:11:35.987Z,0.05
2022-09-22T23:14:04.036Z,0.10
2022-09-22T23:16:36.616Z,0.10
2022-09-22T23:19:07.665Z,0.30
2022-09-22T23:21:35.472Z,0.10
2022-09-22T23:24:03.297Z,0.10
2022-09-22T23:26:30.050Z,0.20
2022-09-22T23:28:58.520Z,0.00
2022-09-22T23:31:25.651Z,0.10
2022-09-22T23:33:52.929Z,0.10
2022-09-22T23:36:24.664Z,0.10
2022-09-22T23:38:55.635Z,0.20
2022-09-22T23:41:22.908Z,0.10
2022-09-22T23:43:49.859Z,0.10
2022-09-22T23:46:16.833Z,0.68
2022-09-22T23:48:43.601Z,0.20
2022-09-22T23:51:10.415Z,0.10
2022-09-22T23:53:37.692Z,0.10
2022-09-22T23:56:05.855Z,0.10
2022-09-22T23:58:32.824Z,0.10
